createdAt,value
2023-03-04T00:05:13.550Z,1.1
2023-03-04T00:20:13.588Z,1
2023-03-04T00:35:13.465Z,1
2023-03-04T00:50:13.565Z,1.1
2023-03-04T01:05:13.559Z,1.2
2023-03-04T01:20:13.489Z,1.4
2023-03-04T01:35:13.464Z,1.4
2023-03-04T01:50:13.563Z,1.5
2023-03-04T02:05:13.533Z,1.6
2023-03-04T02:20:13.551Z,1.6
2023-03-04T02:35:13.547Z,1.6
2023-03-04T02:50:13.572Z,1.7
2023-03-04T03:05:13.578Z,1.8
2023-03-04T03:20:13.566Z,1.8
2023-03-04T03:35:13.570Z,1.9
2023-03-04T03:50:13.563Z,1.9
2023-03-04T04:05:13.533Z,1.9
2023-03-04T04:20:13.475Z,1.9
2023-03-04T04:35:13.482Z,2.2
2023-03-04T04:50:13.528Z,2.2
2023-03-04T05:05:13.546Z,2.2
2023-03-04T05:20:13.574Z,2.1
2023-03-04T05:35:13.579Z,2.3
2023-03-04T05:50:13.548Z,2.4
2023-03-04T06:05:13.553Z,2.5
2023-03-04T06:20:13.575Z,2.4
2023-03-04T06:35:13.568Z,2.6
2023-03-04T06:50:13.557Z,2.6
2023-03-04T07:05:13.555Z,2.8
2023-03-04T07:20:13.569Z,2.9
2023-03-04T07:35:13.558Z,2.9
2023-03-04T07:50:13.571Z,3.1
2023-03-04T08:05:13.587Z,3.2
2023-03-04T08:20:13.548Z,3.4
2023-03-04T08:35:13.568Z,3.6
2023-03-04T08:50:13.583Z,3.8
2023-03-04T09:05:13.582Z,3.9
2023-03-04T09:20:13.585Z,3.9
2023-03-04T09:35:13.567Z,4.1
2023-03-04T09:50:13.573Z,4.4
2023-03-04T10:05:13.579Z,4.4
2023-03-04T10:20:13.579Z,4.7
2023-03-04T10:35:13.559Z,5
2023-03-04T10:50:13.530Z,5.1
2023-03-04T11:05:13.425Z,4.9
2023-03-04T11:20:13.556Z,5.4
2023-03-04T11:35:13.543Z,5.6
2023-03-04T11:50:13.540Z,5.6
2023-03-04T12:05:13.534Z,5.8
2023-03-04T12:20:13.580Z,5.9
2023-03-04T12:35:13.583Z,5.8
2023-03-04T12:50:13.486Z,5.8
2023-03-04T13:05:13.551Z,5.9
2023-03-04T13:20:13.536Z,5.9
2023-03-04T13:35:13.442Z,6.1
2023-03-04T13:50:13.665Z,6.1
2023-03-04T14:05:13.557Z,6.1
2023-03-04T14:20:13.550Z,6.1
2023-03-04T14:35:13.559Z,6.2
2023-03-04T14:50:13.569Z,6
2023-03-04T15:05:17.154Z,5.9
2023-03-04T15:20:13.604Z,5.9
2023-03-04T15:35:13.568Z,5.9
2023-03-04T15:50:13.587Z,5.9
2023-03-04T16:05:13.577Z,5.9
2023-03-04T16:20:13.533Z,5.6
2023-03-04T16:35:13.580Z,5.3
2023-03-04T16:50:14.578Z,5.1
2023-03-04T17:05:13.528Z,5.2
2023-03-04T17:20:13.544Z,5.2
2023-03-04T17:35:13.461Z,4.9
2023-03-04T17:50:13.476Z,4.8
2023-03-04T18:05:13.561Z,4.8
2023-03-04T18:20:13.581Z,4.9
2023-03-04T18:35:13.561Z,4.9
2023-03-04T18:50:13.558Z,4.8
2023-03-04T19:05:13.536Z,4.7
2023-03-04T19:20:13.565Z,4.6
2023-03-04T19:35:13.543Z,4.5
2023-03-04T19:50:13.537Z,4.4
2023-03-04T20:05:13.571Z,4.4
2023-03-04T20:20:13.584Z,4.4
2023-03-04T20:35:13.564Z,4.3
2023-03-04T20:50:13.528Z,4.3
2023-03-04T21:05:13.572Z,4.2
2023-03-04T21:20:13.572Z,4.1
2023-03-04T21:35:13.574Z,4.1
2023-03-04T21:50:13.599Z,4
2023-03-04T22:05:13.537Z,4
2023-03-04T22:20:13.510Z,3.9
2023-03-04T22:35:13.600Z,3.9
2023-03-04T22:50:13.594Z,3.9
2023-03-04T23:05:13.481Z,3.9
2023-03-04T23:20:13.576Z,3.9
2023-03-04T23:35:13.477Z,3.8
2023-03-04T23:50:13.616Z,3.8
